Sharon, SC

5:36 PM EST on March 06, 2015 (GMT -0500)
Hilton Pond Center for Piedmont Natural History | Change Station
CLOSE
Current Station
Personal Weather Station
Location: York, SC
Elevation: 705 ft
Nearby Weather Stations

Elev 705 ft 34.97 °N, 81.22 °W | Updated 1 minute ago

Clear
Clear
46.7 °F
Feels Like 47 °F
N
0.0
Wind Variable Wind from WSW
Gusts 1.0 mph

Today
High -- | Low -- °F
--% Chance of Precip.
Yesterday
High -- | Low -- °F
Precip. -- in
6:48 AM 6:25 PM
Full, 99% visible
Pressure 30.39 in
Visibility 10.0 miles
Clouds Clear
Windchill 47 °F
Dew Point 25 °F
Humidity 43%
Rainfall in
Snow Depth Not available.
UV 0 out of 12
Pollen 6.90 out of 12
Air Quality Not available.
Flu Activity Not available.
METAR KDCM 062235Z AUTO 00000KT 10SM CLR 07/M09 A3039 RMK AO2

More Conditions Fewer Conditions

Pressure 30.39 in
Visibility 10.0 miles
Clouds Clear
Windchill 47 °F
Dew Point 25 °F
Humidity 43%
Rainfall in
Snow Depth Not available.
UV 0 out of 12
Pollen 6.90 out of 12
Air Quality Not available.
Flu Activity Not available.
METAR KDCM 062235Z AUTO 00000KT 10SM CLR 07/M09 A3039 RMK AO2

More Conditions Fewer Conditions

10-Day Weather Forecast

Almanac

Astronomy

Mar. 06, 2015 Rise Set
Actual Time
Civil Twilight
Nautical Twilight
Astronomical Twilight
Moon
Length of Visible Light
Length of Day
Tomorrow will be .
, % of the Moon is Illuminated

Today's Extremes

State Highs State Lows

Community

WunderPhotos

Upload Photos

1,803,420 photos uploaded!

WunderBlogs® & News

Nearby

Air Quality

  Air Quality AQ Index Pollutant
Not available.

Snow Depth

Station Depth Elevation

Earthquake Activity

City Distance Mag. Time & Date
Minimum magnitude displayed is 2.5.

Coastal Water Temperatures

Place Temperature

Nearby Weather Stations